Time,TemperatureF,DewpointF,PressureIn,WindDirection,WindDirectionDegrees,WindSpeedMPH,WindSpeedGustMPH,Humidity,HourlyPrecipIn,Conditions,Clouds,dailyrainin,SoftwareType,DateUTC
2013-05-21 00:01:00,64.0,55.0,-100.00,South,185,12.0,17.0,70,0.00,,,0.00,,2013-05-21 00:01:00,
2013-05-21 00:11:00,64.0,55.0,-100.00,South,190,12.0,16.0,71,0.00,,,0.00,,2013-05-21 00:11:00,
2013-05-21 00:21:00,63.0,55.0,-100.00,SSW,210,11.0,23.0,73,0.00,,,0.00,,2013-05-21 00:21:00,
2013-05-21 00:32:00,63.0,55.0,-100.00,SSW,200,9.0,12.0,75,0.00,,,0.00,,2013-05-21 00:32:00,
2013-05-21 00:41:00,62.0,55.0,-100.00,SSE,165,16.0,22.0,81,0.00,,,0.00,,2013-05-21 00:41:00,
2013-05-21 00:52:00,61.0,57.0,-100.00,SSE,165,9.0,18.0,88,0.00,,,0.00,,2013-05-21 00:52:00,
2013-05-21 01:01:00,60.0,57.0,-100.00,SSE,160,6.0,7.0,91,0.00,,,0.00,,2013-05-21 01:01:00,
2013-05-21 01:11:00,60.0,57.0,-100.00,SE,145,6.0,8.0,92,0.00,,,0.00,,2013-05-21 01:11:00,
2013-05-21 01:21:00,60.0,57.0,-100.00,SE,135,5.0,8.0,92,0.00,,,0.00,,2013-05-21 01:21:00,
2013-05-21 01:32:00,60.0,57.0,-100.00,SE,125,6.0,9.0,92,0.00,,,0.00,,2013-05-21 01:32:00,
2013-05-21 01:42:00,60.0,57.0,-100.00,ESE,110,4.0,9.0,92,0.00,,,0.00,,2013-05-21 01:42:00,
2013-05-21 01:52:00,60.0,59.0,-100.00,ESE,105,10.0,12.0,93,0.00,,,0.00,,2013-05-21 01:52:00,
2013-05-21 02:02:00,60.0,59.0,-100.00,ESE,105,7.0,11.0,93,0.00,,,0.00,,2013-05-21 02:02:00,
2013-05-21 02:11:00,60.0,57.0,-100.00,ESE,115,8.0,11.0,93,0.00,,,0.00,,2013-05-21 02:11:00,
2013-05-21 02:21:00,60.0,57.0,-100.00,SE,130,9.0,16.0,93,0.00,,,0.00,,2013-05-21 02:21:00,
2013-05-21 02:32:00,59.0,57.0,-100.00,ESE,115,9.0,12.0,92,0.00,,,0.00,,2013-05-21 02:32:00,
2013-05-21 02:41:00,60.0,57.0,-100.00,ESE,105,9.0,12.0,92,0.00,,,0.00,,2013-05-21 02:41:00,
2013-05-21 02:52:00,60.0,57.0,-100.00,East,100,8.0,11.0,90,0.00,,,0.00,,2013-05-21 02:52:00,
2013-05-21 03:02:00,60.0,57.0,-100.00,ESE,105,7.0,11.0,88,0.00,,,0.00,,2013-05-21 03:02:00,
2013-05-21 03:11:00,60.0,57.0,-100.00,ESE,105,7.0,10.0,88,0.00,,,0.00,,2013-05-21 03:11:00,
2013-05-21 03:21:00,61.0,57.0,-100.00,ESE,115,11.0,14.0,87,0.00,,,0.00,,2013-05-21 03:21:00,
2013-05-21 03:33:00,60.0,57.0,-100.00,East,85,12.0,19.0,88,0.00,,,0.00,,2013-05-21 03:33:00,
2013-05-21 03:43:00,60.0,57.0,-100.00,East,100,9.0,17.0,92,0.00,,,0.00,,2013-05-21 03:43:00,
2013-05-21 03:53:00,60.0,59.0,-100.00,East,95,9.0,12.0,93,0.00,,,0.00,,2013-05-21 03:53:00,
2013-05-21 04:03:00,60.0,59.0,-100.00,East,85,9.0,12.0,94,0.00,,,0.00,,2013-05-21 04:03:00,
2013-05-21 04:13:00,59.0,57.0,-100.00,ENE,75,11.0,17.0,95,0.00,,,0.00,,2013-05-21 04:13:00,
2013-05-21 04:23:00,58.0,57.0,-100.00,ENE,70,11.0,17.0,96,0.00,,,0.00,,2013-05-21 04:23:00,
2013-05-21 04:33:00,57.0,57.0,-100.00,East,90,9.0,17.0,96,0.00,,,0.00,,2013-05-21 04:33:00,
2013-05-21 04:52:00,56.0,55.0,-100.00,ENE,70,11.0,17.0,98,0.00,,,0.00,,2013-05-21 04:52:00,
2013-05-21 05:02:00,56.0,55.0,-100.00,East,80,10.0,17.0,98,0.00,,,0.00,,2013-05-21 05:02:00,
2013-05-21 05:12:00,56.0,55.0,-100.00,ENE,70,11.0,15.0,98,0.00,,,0.00,,2013-05-21 05:12:00,
2013-05-21 05:22:00,56.0,55.0,-100.00,ENE,65,16.0,18.0,99,0.00,,,0.00,,2013-05-21 05:22:00,
2013-05-21 05:32:00,56.0,55.0,-100.00,ENE,65,15.0,19.0,99,0.00,,,0.00,,2013-05-21 05:32:00,
2013-05-21 06:41:00,54.0,54.0,-100.00,ENE,70,12.0,17.0,99,0.00,,,0.00,,2013-05-21 06:41:00,
2013-05-21 06:51:00,54.0,54.0,-100.00,ENE,65,12.0,16.0,99,0.00,,,0.00,,2013-05-21 06:51:00,
2013-05-21 07:22:00,53.0,52.0,-100.00,ENE,65,9.0,13.0,99,0.00,,,0.00,,2013-05-21 07:22:00,
2013-05-21 07:31:00,52.0,52.0,-100.00,ENE,70,13.0,17.0,99,0.00,,,0.00,,2013-05-21 07:31:00,
2013-05-21 07:41:00,52.0,52.0,-100.00,ENE,70,9.0,16.0,99,0.00,,,0.00,,2013-05-21 07:41:00,
2013-05-21 07:51:00,52.0,52.0,-100.00,ENE,75,11.0,17.0,99,0.00,,,0.00,,2013-05-21 07:51:00,
2013-05-21 08:02:00,52.0,52.0,-100.00,NE,55,10.0,16.0,99,0.00,,,0.00,,2013-05-21 08:02:00,
2013-05-21 08:11:00,52.0,52.0,-100.00,ENE,60,11.0,16.0,99,0.00,,,0.00,,2013-05-21 08:11:00,
2013-05-21 09:01:00,51.0,50.0,-100.00,ENE,65,16.0,20.0,99,0.00,,,0.00,,2013-05-21 09:01:00,
2013-05-21 09:11:00,51.0,50.0,-100.00,ENE,70,16.0,20.0,99,0.00,,,0.00,,2013-05-21 09:11:00,
2013-05-21 09:21:00,51.0,50.0,-100.00,ENE,70,12.0,21.0,99,0.00,,,0.00,,2013-05-21 09:21:00,
2013-05-21 09:32:00,50.0,50.0,-100.00,ENE,70,9.0,16.0,99,0.00,,,0.00,,2013-05-21 09:32:00,
2013-05-21 09:42:00,50.0,50.0,-100.00,NE,45,12.0,16.0,99,0.00,,,0.00,,2013-05-21 09:42:00,
2013-05-21 10:22:00,49.0,48.0,-100.00,ENE,75,12.0,19.0,99,0.00,,,0.00,,2013-05-21 10:22:00,
2013-05-21 10:32:00,49.0,48.0,-100.00,NE,55,13.0,16.0,99,0.00,,,0.00,,2013-05-21 10:32:00,
2013-05-21 10:42:00,49.0,48.0,-100.00,ENE,60,13.0,19.0,99,0.00,,,0.00,,2013-05-21 10:42:00,
2013-05-21 10:52:00,49.0,48.0,-100.00,NE,55,13.0,19.0,99,0.00,,,0.00,,2013-05-21 10:52:00,
2013-05-21 11:02:00,49.0,48.0,-100.00,ENE,70,10.0,16.0,99,0.00,,,0.00,,2013-05-21 11:02:00,
2013-05-21 11:11:00,49.0,48.0,-100.00,NE,50,11.0,15.0,99,0.00,,,0.00,,2013-05-21 11:11:00,
2013-05-21 11:21:00,49.0,48.0,-100.00,ENE,70,11.0,16.0,99,0.00,,,0.00,,2013-05-21 11:21:00,
2013-05-21 11:32:00,48.0,48.0,-100.00,ENE,60,14.0,19.0,99,0.00,,,0.00,,2013-05-21 11:32:00,
2013-05-21 11:41:00,48.0,48.0,-100.00,NE,55,11.0,16.0,99,0.00,,,0.00,,2013-05-21 11:41:00,
2013-05-21 12:41:00,48.0,48.0,-100.00,ENE,70,11.0,16.0,99,0.00,,,0.00,,2013-05-21 12:41:00,
2013-05-21 16:52:00,48.0,48.0,-100.00,NE,55,11.0,16.0,98,0.00,,,0.00,,2013-05-21 16:52:00,
2013-05-21 17:02:00,49.0,48.0,-100.00,NE,40,10.0,16.0,98,0.00,,,0.00,,2013-05-21 17:02:00,
2013-05-21 17:12:00,49.0,48.0,-100.00,NE,45,10.0,17.0,98,0.00,,,0.00,,2013-05-21 17:12:00,
2013-05-21 17:23:00,49.0,48.0,-100.00,NE,50,12.0,17.0,97,0.00,,,0.00,,2013-05-21 17:23:00,
2013-05-21 17:32:00,49.0,48.0,-100.00,NE,55,14.0,20.0,97,0.00,,,0.00,,2013-05-21 17:32:00,
2013-05-21 17:43:00,49.0,48.0,-100.00,ENE,65,12.0,17.0,97,0.00,,,0.00,,2013-05-21 17:43:00,
2013-05-21 17:52:00,49.0,48.0,-100.00,ENE,65,14.0,20.0,96,0.00,,,0.00,,2013-05-21 17:52:00,
2013-05-21 18:01:00,49.0,48.0,-100.00,NE,55,12.0,19.0,96,0.00,,,0.00,,2013-05-21 18:01:00,
2013-05-21 18:12:00,49.0,48.0,-100.00,NE,50,15.0,20.0,96,0.00,,,0.00,,2013-05-21 18:12:00,
2013-05-21 18:22:00,50.0,48.0,-100.00,NE,55,14.0,19.0,96,0.00,,,0.00,,2013-05-21 18:22:00,
2013-05-21 18:32:00,50.0,48.0,-100.00,NE,55,14.0,21.0,96,0.00,,,0.00,,2013-05-21 18:32:00,
2013-05-21 18:42:00,50.0,48.0,-100.00,ENE,60,15.0,21.0,96,0.00,,,0.00,,2013-05-21 18:42:00,
2013-05-21 18:51:00,50.0,50.0,-100.00,ENE,65,11.0,18.0,96,0.00,,,0.00,,2013-05-21 18:51:00,
2013-05-21 19:01:00,50.0,48.0,-100.00,ENE,60,15.0,21.0,96,0.00,,,0.00,,2013-05-21 19:01:00,
2013-05-21 19:11:00,50.0,48.0,-100.00,NE,55,14.0,21.0,96,0.00,,,0.00,,2013-05-21 19:11:00,
2013-05-21 19:21:00,50.0,48.0,-100.00,ENE,70,11.0,20.0,96,0.00,,,0.00,,2013-05-21 19:21:00,
2013-05-21 19:32:00,50.0,48.0,-100.00,ENE,70,11.0,15.0,96,0.00,,,0.00,,2013-05-21 19:32:00,
2013-05-21 19:41:00,50.0,50.0,-100.00,ENE,60,9.0,14.0,97,0.00,,,0.00,,2013-05-21 19:41:00,
2013-05-21 19:52:00,50.0,50.0,-100.00,NE,55,9.0,15.0,97,0.00,,,0.00,,2013-05-21 19:52:00,
2013-05-21 20:03:00,50.0,50.0,-100.00,ENE,70,9.0,16.0,98,0.00,,,0.00,,2013-05-21 20:03:00,
2013-05-21 20:11:00,50.0,50.0,-100.00,NE,55,9.0,13.0,98,0.00,,,0.00,,2013-05-21 20:11:00,
2013-05-21 20:22:00,50.0,50.0,-100.00,NE,50,10.0,14.0,98,0.00,,,0.00,,2013-05-21 20:22:00,
2013-05-21 20:32:00,51.0,50.0,-100.00,NE,45,12.0,18.0,98,0.00,,,0.00,,2013-05-21 20:32:00,
2013-05-21 20:42:00,51.0,50.0,-100.00,NE,50,11.0,17.0,98,0.00,,,0.00,,2013-05-21 20:42:00,
2013-05-21 20:52:00,51.0,50.0,-100.00,NE,55,10.0,15.0,98,0.00,,,0.00,,2013-05-21 20:52:00,
2013-05-21 21:02:00,51.0,50.0,-100.00,ENE,65,9.0,15.0,98,0.00,,,0.00,,2013-05-21 21:02:00,
2013-05-21 21:11:00,51.0,50.0,-100.00,ENE,65,9.0,14.0,98,0.00,,,0.00,,2013-05-21 21:11:00,
2013-05-21 21:53:00,50.0,50.0,-100.00,East,85,10.0,15.0,98,0.00,,,0.00,,2013-05-21 21:53:00,
2013-05-21 22:02:00,50.0,50.0,-100.00,East,80,8.0,17.0,98,0.00,,,0.00,,2013-05-21 22:02:00,
2013-05-21 22:12:00,50.0,50.0,-100.00,East,80,12.0,16.0,98,0.00,,,0.00,,2013-05-21 22:12:00,
2013-05-21 22:33:00,50.0,50.0,-100.00,ENE,75,11.0,18.0,98,0.00,,,0.00,,2013-05-21 22:33:00,
2013-05-21 22:52:00,49.0,48.0,-100.00,ENE,65,13.0,20.0,98,0.00,,,0.00,,2013-05-21 22:52:00,
2013-05-21 23:02:00,49.0,48.0,-100.00,ENE,75,14.0,19.0,98,0.00,,,0.00,,2013-05-21 23:02:00,
2013-05-21 23:12:00,49.0,48.0,-100.00,ENE,60,11.0,17.0,97,0.00,,,0.00,,2013-05-21 23:12:00,
2013-05-21 23:22:00,49.0,48.0,-100.00,ENE,65,11.0,15.0,97,0.00,,,0.00,,2013-05-21 23:22:00,
2013-05-21 23:32:00,49.0,48.0,-100.00,NE,55,11.0,16.0,97,0.00,,,0.00,,2013-05-21 23:32:00,
2013-05-21 23:42:00,49.0,48.0,-100.00,ENE,60,12.0,17.0,97,0.00,,,0.00,,2013-05-21 23:42:00,
2013-05-21 23:52:00,49.0,48.0,-100.00,ENE,60,12.0,16.0,97,0.00,,,0.00,,2013-05-21 23:52:00,